Time;durP1;ratioP1;P1;durP2;ratioP2;P2;SDS_P1;SDS_P2;PMS_P1;PMS_P2;Temp;Humidity;BMP_temperature;BMP_pressure;BME280_temperature;BME280_humidity;BME280_pressure;Samples;Min_cycle;Max_cycle;Signal;HPM_P1;HPM_P2
2022/02/13 00:00:15;;;;;;;34.00;14.90;;;-1.60;99.90;;;;;;5071461;28;20478;-66
2022/02/13 00:02:44;;;;;;;36.57;15.53;;;-1.60;99.90;;;;;;5071691;28;20440;-67
2022/02/13 00:05:12;;;;;;;30.27;14.73;;;-1.60;99.90;;;;;;5070934;28;20088;-66
2022/02/13 00:07:39;;;;;;;27.57;14.13;;;-1.50;99.90;;;;;;5071488;28;20048;-66
2022/02/13 00:10:08;;;;;;;29.63;14.37;;;-1.50;99.90;;;;;;5071126;28;20587;-66
2022/02/13 00:12:36;;;;;;;31.00;15.40;;;-1.50;99.90;;;;;;5071273;28;20140;-66
2022/02/13 00:15:06;;;;;;;35.23;15.63;;;-1.50;99.90;;;;;;5071020;28;20496;-67
2022/02/13 00:17:32;;;;;;;28.20;14.33;;;-1.50;99.90;;;;;;5071428;28;20457;-67
2022/02/13 00:20:02;;;;;;;32.60;14.10;;;-1.60;99.90;;;;;;5071447;28;20058;-67
2022/02/13 00:22:29;;;;;;;28.57;15.00;;;-1.60;99.90;;;;;;5071084;28;20057;-66
2022/02/13 00:24:56;;;;;;;36.53;14.83;;;-1.60;99.90;;;;;;5070711;28;20136;-66
2022/02/13 00:27:24;;;;;;;33.13;15.53;;;-1.70;99.90;;;;;;5071097;28;20580;-67
2022/02/13 00:29:51;;;;;;;29.87;15.00;;;-1.60;99.90;;;;;;5071010;28;20136;-67
2022/02/13 00:32:21;;;;;;;31.53;16.27;;;-1.60;99.90;;;;;;5070811;28;20140;-67
2022/02/13 00:34:48;;;;;;;30.07;14.13;;;-1.60;99.90;;;;;;5070628;28;20508;-67
2022/02/13 00:37:15;;;;;;;30.67;14.23;;;-1.70;99.90;;;;;;5070896;28;20500;-66
2022/02/13 00:39:42;;;;;;;30.60;15.00;;;-1.70;99.90;;;;;;5070957;28;20076;-66
2022/02/13 00:42:09;;;;;;;31.20;14.80;;;-1.70;99.90;;;;;;5070957;28;20045;-66
2022/02/13 00:44:36;;;;;;;31.57;15.53;;;-1.70;99.90;;;;;;5070884;28;20140;-66
2022/02/13 00:47:04;;;;;;;30.90;14.77;;;-1.70;99.90;;;;;;5070873;28;20166;-66
2022/02/13 00:49:32;;;;;;;30.47;13.73;;;-1.70;99.90;;;;;;5072984;28;20136;-67
2022/02/13 00:51:59;;;;;;;34.30;15.00;;;-1.70;99.90;;;;;;5074506;28;20139;-66
2022/02/13 00:54:27;;;;;;;35.10;15.53;;;-1.70;99.90;;;;;;5074316;28;20080;-66
2022/02/13 00:56:54;;;;;;;32.20;13.93;;;-1.80;99.90;;;;;;5074739;28;20131;-66
2022/02/13 00:59:21;;;;;;;26.90;13.33;;;-1.70;99.90;;;;;;5074141;28;20056;-67
2022/02/13 01:01:48;;;;;;;28.30;12.00;;;-1.60;99.90;;;;;;5074387;28;20109;-66
2022/02/13 01:04:15;;;;;;;24.23;10.50;;;-1.50;99.90;;;;;;5074127;28;20040;-66
2022/02/13 01:06:43;;;;;;;26.13;12.67;;;-1.10;99.90;;;;;;5074126;28;20083;-66
2022/02/13 01:09:11;;;;;;;19.23;7.80;;;-1.30;99.90;;;;;;5073986;28;20140;-66
2022/02/13 01:11:38;;;;;;;16.90;6.83;;;-0.80;99.90;;;;;;5074106;28;20131;-66
2022/02/13 01:14:06;;;;;;;12.50;6.10;;;-0.40;99.90;;;;;;5073786;28;20056;-66
2022/02/13 01:16:33;;;;;;;16.43;6.90;;;-0.30;99.90;;;;;;5074073;28;20052;-66
2022/02/13 01:19:00;;;;;;;13.83;5.83;;;-0.20;99.90;;;;;;5074111;28;20556;-66
2022/02/13 01:21:29;;;;;;;14.77;5.93;;;0.00;99.90;;;;;;5074127;28;20397;-66
2022/02/13 01:23:58;;;;;;;13.37;6.07;;;0.10;99.90;;;;;;5073949;28;20057;-66
2022/02/13 01:26:25;;;;;;;14.63;6.63;;;0.10;99.90;;;;;;5073689;28;20102;-66
2022/02/13 01:28:52;;;;;;;13.47;6.40;;;0.10;99.90;;;;;;5073672;28;20040;-66
2022/02/13 01:31:19;;;;;;;18.83;8.70;;;0.10;99.90;;;;;;5073617;28;20135;-66
2022/02/13 01:33:46;;;;;;;21.73;9.87;;;0.00;99.90;;;;;;5073537;28;20140;-66
2022/02/13 01:36:14;;;;;;;17.83;8.87;;;-0.30;99.90;;;;;;5073415;28;20087;-66
2022/02/13 01:38:41;;;;;;;24.57;10.40;;;-0.80;99.90;;;;;;5073395;28;20044;-66
2022/02/13 01:41:09;;;;;;;17.63;9.23;;;-1.10;99.90;;;;;;5073412;28;20563;-66
2022/02/13 01:43:37;;;;;;;23.97;10.40;;;-1.10;99.90;;;;;;5073695;28;20082;-66
2022/02/13 01:46:04;;;;;;;17.70;8.07;;;-1.20;99.90;;;;;;5073231;28;20049;-66
2022/02/13 01:48:32;;;;;;;18.50;8.20;;;-1.20;99.90;;;;;;5073721;28;20467;-66
2022/02/13 01:50:59;;;;;;;19.80;7.80;;;-1.10;99.90;;;;;;5073294;28;20044;-66
2022/02/13 01:53:26;;;;;;;15.67;7.80;;;-1.20;99.90;;;;;;5072985;28;20048;-66
2022/02/13 01:55:53;;;;;;;17.10;6.93;;;-1.20;99.90;;;;;;5072947;28;20473;-66
2022/02/13 01:58:22;;;;;;;17.53;7.33;;;-0.80;99.90;;;;;;5073087;28;20144;-66
2022/02/13 02:00:49;;;;;;;19.60;8.13;;;-0.80;99.90;;;;;;5072598;28;20135;-66
2022/02/13 02:03:16;;;;;;;16.57;8.47;;;-0.90;99.90;;;;;;5072988;28;20052;-66
2022/02/13 02:05:44;;;;;;;18.73;8.40;;;-1.00;99.90;;;;;;5072834;28;20151;-66
2022/02/13 02:08:11;;;;;;;17.40;7.60;;;-1.00;99.90;;;;;;5073033;28;20091;-66
2022/02/13 02:10:38;;;;;;;15.97;7.40;;;-1.00;99.90;;;;;;5072776;28;20509;-66
2022/02/13 02:13:05;;;;;;;19.63;7.60;;;-1.00;99.90;;;;;;5072765;28;20489;-66
2022/02/13 02:15:34;;;;;;;15.63;7.27;;;-1.10;99.90;;;;;;5072544;28;20135;-66
2022/02/13 02:18:01;;;;;;;13.77;6.90;;;-1.10;99.90;;;;;;5072881;28;20122;-66
2022/02/13 02:20:31;;;;;;;16.93;8.23;;;-1.20;99.90;;;;;;5073201;28;20052;-66
2022/02/13 02:22:59;;;;;;;13.63;6.77;;;-1.20;99.90;;;;;;5074331;28;20044;-66
2022/02/13 02:25:27;;;;;;;13.77;7.30;;;-1.00;99.90;;;;;;5073999;28;20060;-66
2022/02/13 02:27:53;;;;;;;16.90;7.50;;;-1.00;99.90;;;;;;5073646;28;20049;-66
2022/02/13 02:30:20;;;;;;;13.33;6.77;;;-0.90;99.90;;;;;;5072347;28;20044;-66
2022/02/13 02:32:47;;;;;;;17.90;6.73;;;-0.90;99.90;;;;;;5072390;28;20056;-66
2022/02/13 02:35:15;;;;;;;15.57;6.83;;;-0.80;99.90;;;;;;5072539;28;20049;-66
2022/02/13 02:37:42;;;;;;;14.90;6.17;;;-0.90;99.90;;;;;;5072246;28;20139;-66
2022/02/13 02:40:11;;;;;;;13.77;6.70;;;-1.00;99.90;;;;;;5072241;28;20131;-66
2022/02/13 02:42:38;;;;;;;17.53;7.00;;;-0.90;99.90;;;;;;5072194;28;20131;-66
2022/02/13 02:45:06;;;;;;;15.77;6.23;;;-0.90;99.90;;;;;;5071943;28;20508;-66
2022/02/13 02:47:33;;;;;;;12.77;6.10;;;-0.90;99.90;;;;;;5072238;28;20135;-66
2022/02/13 02:49:59;;;;;;;20.63;7.57;;;-0.80;99.90;;;;;;5072023;28;20054;-66
2022/02/13 02:52:27;;;;;;;19.90;7.30;;;-0.80;99.90;;;;;;5071930;28;20495;-66
2022/02/13 02:54:53;;;;;;;12.40;6.40;;;-0.80;99.90;;;;;;5071953;28;20088;-66
2022/02/13 02:57:22;;;;;;;16.30;7.10;;;-0.70;99.90;;;;;;5072299;28;20404;-66
2022/02/13 02:59:49;;;;;;;13.87;6.60;;;-0.80;99.90;;;;;;5072105;28;20045;-66
2022/02/13 03:02:16;;;;;;;12.90;6.50;;;-0.80;99.90;;;;;;5072054;28;20492;-66
2022/02/13 03:04:43;;;;;;;16.03;6.50;;;-0.90;99.90;;;;;;5071711;28;20128;-66
2022/02/13 03:07:09;;;;;;;18.00;6.47;;;-0.90;99.90;;;;;;5071917;28;20143;-66
2022/02/13 03:09:36;;;;;;;15.57;6.90;;;-0.80;99.90;;;;;;5071894;28;20058;-66
2022/02/13 03:12:04;;;;;;;15.30;7.03;;;-0.90;99.90;;;;;;5071113;28;20054;-66
2022/02/13 03:14:32;;;;;;;16.70;7.17;;;-0.90;99.90;;;;;;5071953;28;20416;-66
2022/02/13 03:17:01;;;;;;;14.13;6.40;;;-0.90;99.90;;;;;;5071591;28;20107;-66
2022/02/13 03:19:27;;;;;;;15.63;7.47;;;-1.00;99.90;;;;;;5071799;28;20106;-66
2022/02/13 03:21:54;;;;;;;13.93;7.53;;;-1.00;99.90;;;;;;5071725;28;20136;-66
2022/02/13 03:24:21;;;;;;;16.70;7.13;;;-1.00;99.90;;;;;;5071672;28;20080;-66
2022/02/13 03:26:48;;;;;;;18.93;7.43;;;-1.10;99.90;;;;;;5071620;28;20474;-66
2022/02/13 03:29:15;;;;;;;15.07;7.23;;;-1.20;99.90;;;;;;5071868;28;20060;-66
2022/02/13 03:31:44;;;;;;;16.10;7.47;;;-1.20;99.90;;;;;;5071580;28;20088;-66
2022/02/13 03:34:11;;;;;;;18.50;7.10;;;-1.20;99.90;;;;;;5071548;28;20055;-66
2022/02/13 03:36:38;;;;;;;16.40;6.80;;;-1.30;99.90;;;;;;5071335;28;20048;-66
2022/02/13 03:39:05;;;;;;;18.83;8.37;;;-1.40;99.90;;;;;;5071929;28;20131;-66
2022/02/13 03:41:32;;;;;;;16.97;6.60;;;-1.40;99.90;;;;;;5072006;28;20106;-66
2022/02/13 03:43:59;;;;;;;19.97;7.83;;;-1.40;99.90;;;;;;5071298;28;20480;-66
2022/02/13 03:46:26;;;;;;;14.70;6.90;;;-1.40;99.90;;;;;;5071272;28;20139;-66
2022/02/13 03:48:55;;;;;;;12.83;6.57;;;-1.40;99.90;;;;;;5071372;28;20234;-66
2022/02/13 03:51:22;;;;;;;13.97;6.50;;;-1.40;99.90;;;;;;5071444;28;20151;-66
2022/02/13 03:53:48;;;;;;;16.90;6.97;;;-1.40;99.90;;;;;;5071173;28;20048;-66
2022/02/13 03:56:15;;;;;;;19.30;7.83;;;-1.30;99.90;;;;;;5071311;28;20104;-67
2022/02/13 03:58:42;;;;;;;16.90;7.80;;;-1.30;99.90;;;;;;5071347;28;20101;-66
2022/02/13 04:01:09;;;;;;;16.17;7.13;;;-1.30;99.90;;;;;;5071356;28;20136;-66
2022/02/13 04:03:36;;;;;;;18.70;7.50;;;-1.30;99.90;;;;;;5071204;28;20080;-66
2022/02/13 04:06:04;;;;;;;21.73;7.63;;;-1.30;99.90;;;;;;5071218;28;20128;-67
2022/02/13 04:08:31;;;;;;;15.13;6.87;;;-1.30;99.90;;;;;;5071149;28;20151;-66
2022/02/13 04:10:58;;;;;;;19.43;8.87;;;-1.30;99.90;;;;;;5071030;28;20127;-66
2022/02/13 04:13:25;;;;;;;14.63;7.93;;;-1.30;99.90;;;;;;5071315;28;20088;-66
2022/02/13 04:15:52;;;;;;;16.90;7.33;;;-1.40;99.90;;;;;;5070821;28;20051;-66
2022/02/13 04:18:19;;;;;;;14.27;7.67;;;-1.30;99.90;;;;;;5071303;28;20378;-66
2022/02/13 04:20:47;;;;;;;20.23;8.07;;;-1.30;99.90;;;;;;5071193;28;20052;-66
2022/02/13 04:23:15;;;;;;;19.17;7.57;;;-1.20;99.90;;;;;;5072611;28;20048;-66
2022/02/13 04:25:42;;;;;;;18.60;7.53;;;-1.30;99.90;;;;;;5074395;28;20170;-66
2022/02/13 04:28:09;;;;;;;17.93;7.60;;;-1.30;99.90;;;;;;5074980;28;20099;-66
2022/02/13 04:30:36;;;;;;;15.67;7.13;;;-1.30;99.90;;;;;;5074792;28;20085;-66
2022/02/13 04:33:03;;;;;;;17.63;7.37;;;-1.30;99.90;;;;;;5074888;28;20044;-66
2022/02/13 04:35:30;;;;;;;18.23;7.57;;;-1.40;99.90;;;;;;5074394;28;20057;-66
2022/02/13 04:37:57;;;;;;;16.70;7.57;;;-1.30;99.90;;;;;;5074398;28;20084;-66
2022/02/13 04:40:26;;;;;;;15.13;7.33;;;-1.20;99.90;;;;;;5074597;28;20132;-66
2022/02/13 04:42:53;;;;;;;19.43;8.67;;;-1.30;99.90;;;;;;5074619;28;20051;-66
2022/02/13 04:45:20;;;;;;;15.33;7.63;;;-1.30;99.90;;;;;;5074323;28;20139;-67
2022/02/13 04:47:48;;;;;;;17.50;7.40;;;-1.30;99.90;;;;;;5074361;28;20568;-66
2022/02/13 04:50:21;;;;;;;20.57;7.73;;;-1.30;99.90;;;;;;5074418;28;20052;-66
2022/02/13 04:52:48;;;;;;;16.93;7.60;;;-1.30;99.90;;;;;;5074700;28;20175;-66
2022/02/13 04:55:15;;;;;;;15.07;7.03;;;-1.40;99.90;;;;;;5074474;28;20062;-66
2022/02/13 04:57:44;;;;;;;16.17;6.97;;;-1.40;99.90;;;;;;5074301;28;20048;-66
2022/02/13 05:00:11;;;;;;;15.73;7.17;;;-1.40;99.90;;;;;;5074342;28;20063;-66
2022/02/13 05:02:39;;;;;;;16.40;7.10;;;-1.40;99.90;;;;;;5074658;28;20167;-66
2022/02/13 05:05:06;;;;;;;17.20;7.53;;;-1.40;99.90;;;;;;5073965;28;20135;-67
2022/02/13 05:07:33;;;;;;;19.50;7.90;;;-1.40;99.90;;;;;;5074115;28;20250;-66
2022/02/13 05:10:00;;;;;;;19.70;7.60;;;-1.40;99.90;;;;;;5074114;28;20132;-66
2022/02/13 05:12:27;;;;;;;17.73;8.40;;;-1.40;99.90;;;;;;5074141;28;20538;-66
2022/02/13 05:14:56;;;;;;;17.93;8.57;;;-1.40;99.90;;;;;;5073871;28;20453;-67
2022/02/13 05:17:23;;;;;;;19.83;8.60;;;-1.40;99.90;;;;;;5074056;28;20123;-67
2022/02/13 05:19:50;;;;;;;13.83;7.17;;;-1.30;99.90;;;;;;5073881;28;20132;-66
2022/02/13 05:22:18;;;;;;;14.57;7.33;;;-1.30;99.90;;;;;;5073903;28;20135;-66
2022/02/13 05:24:45;;;;;;;16.87;7.27;;;-1.40;99.90;;;;;;5073725;28;20055;-66
2022/02/13 05:27:13;;;;;;;17.07;7.20;;;-1.40;99.90;;;;;;5073878;28;20095;-66
2022/02/13 05:29:40;;;;;;;16.80;7.83;;;-1.40;99.90;;;;;;5073695;28;20127;-66
2022/02/13 05:32:09;;;;;;;15.70;7.20;;;-1.50;99.90;;;;;;5073526;28;20060;-66
2022/02/13 05:34:36;;;;;;;18.87;8.03;;;-1.50;99.90;;;;;;5072656;28;20066;-66
2022/02/13 05:37:04;;;;;;;17.90;8.53;;;-1.50;99.90;;;;;;5073567;28;20135;-66
2022/02/13 05:39:31;;;;;;;13.90;6.70;;;-1.50;99.90;;;;;;5073542;28;20048;-66
2022/02/13 05:41:58;;;;;;;16.30;7.60;;;-1.50;99.90;;;;;;5073474;28;20084;-66
2022/02/13 05:44:25;;;;;;;18.27;8.00;;;-1.40;99.90;;;;;;5073365;28;20140;-66
2022/02/13 05:46:52;;;;;;;14.87;7.30;;;-1.50;99.90;;;;;;5073618;28;20136;-66
2022/02/13 05:49:21;;;;;;;17.93;7.23;;;-1.50;99.90;;;;;;5073291;28;20210;-66
2022/02/13 05:51:48;;;;;;;14.00;7.70;;;-1.60;99.90;;;;;;5073231;28;20135;-66
2022/02/13 05:54:14;;;;;;;17.70;8.03;;;-1.70;99.90;;;;;;5073163;28;20075;-66
2022/02/13 05:56:44;;;;;;;18.67;8.23;;;-1.70;99.90;;;;;;5072899;28;20127;-66
2022/02/13 05:59:12;;;;;;;16.30;7.40;;;-1.80;99.90;;;;;;5073359;28;20110;-70
2022/02/13 06:01:39;;;;;;;19.07;9.37;;;-1.90;99.90;;;;;;5073225;28;20144;-66
2022/02/13 06:04:06;;;;;;;19.40;8.83;;;-1.80;99.90;;;;;;5073220;28;20135;-66
2022/02/13 06:06:34;;;;;;;17.80;7.40;;;-1.70;99.90;;;;;;5072824;28;20135;-66
2022/02/13 06:09:01;;;;;;;20.53;7.40;;;-1.60;99.90;;;;;;5072877;28;20060;-66
2022/02/13 06:11:28;;;;;;;19.60;7.73;;;-1.60;99.90;;;;;;5073000;28;20057;-66
2022/02/13 06:13:55;;;;;;;15.47;7.73;;;-1.50;99.90;;;;;;5072571;28;20143;-66
2022/02/13 06:16:22;;;;;;;16.10;8.03;;;-1.60;99.90;;;;;;5072544;28;20135;-66
2022/02/13 06:18:49;;;;;;;16.97;8.50;;;-1.50;99.90;;;;;;5072690;28;20135;-66
2022/02/13 06:21:16;;;;;;;17.80;7.50;;;-1.50;99.90;;;;;;5072641;28;20127;-66
2022/02/13 06:23:44;;;;;;;14.97;7.50;;;-1.50;99.90;;;;;;5072472;28;20132;-66
2022/02/13 06:26:13;;;;;;;16.03;7.40;;;-1.60;99.90;;;;;;5072720;28;20045;-66
2022/02/13 06:28:40;;;;;;;20.27;8.27;;;-1.60;99.90;;;;;;5072838;28;20045;-66
2022/02/13 06:31:07;;;;;;;18.93;8.20;;;-1.70;99.90;;;;;;5072936;28;20135;-66
2022/02/13 06:33:33;;;;;;;19.33;8.20;;;-1.70;99.90;;;;;;5073713;28;20135;-66
2022/02/13 06:36:00;;;;;;;19.33;8.17;;;-1.80;99.90;;;;;;5073307;28;20131;-66
2022/02/13 06:38:27;;;;;;;21.50;9.17;;;-1.80;99.90;;;;;;5072621;28;20147;-66
2022/02/13 06:40:55;;;;;;;17.53;8.70;;;-1.80;99.90;;;;;;5072441;28;20135;-66
2022/02/13 06:43:22;;;;;;;17.70;8.20;;;-1.60;99.90;;;;;;5072229;28;20131;-66
2022/02/13 06:45:49;;;;;;;17.50;7.57;;;-1.60;99.90;;;;;;5071807;28;20132;-66
2022/02/13 06:48:16;;;;;;;17.27;7.83;;;-1.70;99.90;;;;;;5072154;28;20457;-66
2022/02/13 06:50:43;;;;;;;17.63;8.20;;;-1.60;99.90;;;;;;5071969;28;20128;-66
2022/02/13 06:53:10;;;;;;;19.37;9.10;;;-1.40;99.90;;;;;;5072302;28;20131;-66
2022/02/13 06:55:37;;;;;;;17.87;7.67;;;-1.40;99.90;;;;;;5072057;28;20420;-66
2022/02/13 06:58:05;;;;;;;14.30;7.03;;;-1.40;99.90;;;;;;5072503;28;20472;-66
2022/02/13 07:00:32;;;;;;;16.17;7.57;;;-1.30;99.90;;;;;;5072006;28;20131;-66
2022/02/13 07:02:59;;;;;;;22.63;8.43;;;-1.30;99.90;;;;;;5071908;28;20144;-66
2022/02/13 07:05:27;;;;;;;18.90;7.87;;;-1.30;99.90;;;;;;5071596;28;20135;-66
2022/02/13 07:07:54;;;;;;;16.67;7.60;;;-1.20;99.90;;;;;;5072136;28;20048;-66
2022/02/13 07:10:21;;;;;;;16.13;7.87;;;-1.20;99.90;;;;;;5071856;28;20045;-66
2022/02/13 07:12:48;;;;;;;17.33;7.63;;;-1.10;99.90;;;;;;5071842;28;20131;-66
2022/02/13 07:15:16;;;;;;;17.87;8.00;;;-1.10;99.90;;;;;;5071459;28;20136;-66
2022/02/13 07:17:45;;;;;;;15.53;7.30;;;-1.10;99.90;;;;;;5070641;28;20076;-66
2022/02/13 07:20:12;;;;;;;15.90;7.73;;;-1.00;99.90;;;;;;5071791;28;20463;-66
2022/02/13 07:22:39;;;;;;;17.87;8.20;;;-1.00;99.90;;;;;;5071654;28;20056;-66
2022/02/13 07:25:07;;;;;;;17.70;7.50;;;-1.00;99.90;;;;;;5071666;28;20133;-66
2022/02/13 07:27:34;;;;;;;18.10;8.63;;;-0.90;99.90;;;;;;5071752;28;20570;-66
2022/02/13 07:30:01;;;;;;;17.93;8.53;;;-0.80;99.90;;;;;;5071620;28;20143;-66
2022/02/13 07:32:30;;;;;;;20.23;8.57;;;-0.80;99.90;;;;;;5071692;28;20088;-66
2022/02/13 07:34:56;;;;;;;21.73;7.93;;;-0.70;99.90;;;;;;5071690;28;20052;-67
2022/02/13 07:37:24;;;;;;;18.20;8.43;;;-0.70;99.90;;;;;;5071652;28;20132;-66
2022/02/13 07:39:51;;;;;;;18.13;8.37;;;-0.70;99.90;;;;;;5072076;28;20143;-66
2022/02/13 07:42:18;;;;;;;16.60;8.37;;;-0.60;99.90;;;;;;5071779;28;20048;-66
2022/02/13 07:44:46;;;;;;;19.30;8.43;;;-0.50;99.90;;;;;;5071500;28;20151;-66
2022/02/13 07:47:13;;;;;;;21.67;7.80;;;-0.40;99.90;;;;;;5071491;28;20528;-66
2022/02/13 07:49:42;;;;;;;21.63;8.30;;;-0.30;99.90;;;;;;5071842;28;20135;-66
2022/02/13 07:52:09;;;;;;;18.17;7.97;;;-0.20;99.90;;;;;;5071543;28;20479;-66
2022/02/13 07:54:36;;;;;;;16.90;8.27;;;-0.20;99.90;;;;;;5071323;28;20515;-66
2022/02/13 07:57:04;;;;;;;16.40;7.90;;;-0.10;99.90;;;;;;5071580;28;20393;-66
2022/02/13 07:59:31;;;;;;;18.43;8.13;;;0.00;99.90;;;;;;5075557;28;20063;-66
2022/02/13 08:02:00;;;;;;;15.67;7.53;;;0.10;99.90;;;;;;5076010;28;20548;-66
2022/02/13 08:04:27;;;;;;;17.27;8.63;;;0.20;99.90;;;;;;5075335;28;20052;-66
2022/02/13 08:06:55;;;;;;;16.27;7.60;;;0.30;99.90;;;;;;5075495;28;20048;-66
2022/02/13 08:09:22;;;;;;;18.40;8.53;;;0.40;99.90;;;;;;5076025;28;20565;-66
2022/02/13 08:11:49;;;;;;;21.77;7.60;;;0.50;99.90;;;;;;5075671;28;20587;-66
2022/02/13 08:14:16;;;;;;;16.70;8.07;;;0.60;99.90;;;;;;5075223;28;20174;-66
2022/02/13 08:16:43;;;;;;;17.77;8.23;;;0.70;99.90;;;;;;5076308;28;20052;-66
2022/02/13 08:19:10;;;;;;;16.97;7.40;;;0.80;99.90;;;;;;5075930;28;20505;-66
2022/02/13 08:21:37;;;;;;;14.37;7.37;;;0.90;99.90;;;;;;5075656;28;20139;-66
2022/02/13 08:24:06;;;;;;;21.13;9.13;;;1.10;99.90;;;;;;5075656;28;20105;-66
2022/02/13 08:26:33;;;;;;;18.03;8.13;;;1.20;99.90;;;;;;5075239;28;20461;-66
2022/02/13 08:29:00;;;;;;;17.60;8.10;;;1.30;99.90;;;;;;5075465;28;20131;-67
2022/02/13 08:31:27;;;;;;;16.17;7.77;;;1.50;99.90;;;;;;5075183;28;20542;-66
2022/02/13 08:33:54;;;;;;;18.20;8.63;;;1.80;99.90;;;;;;5075000;28;20062;-66
2022/02/13 08:36:23;;;;;;;18.07;7.47;;;2.60;99.90;;;;;;5074996;28;20564;-66
2022/02/13 08:38:50;;;;;;;16.83;8.00;;;2.50;99.90;;;;;;5075274;28;20060;-66
2022/02/13 08:41:19;;;;;;;15.50;7.87;;;2.80;99.90;;;;;;5074888;28;20132;-66
2022/02/13 08:43:48;;;;;;;16.00;7.70;;;6.10;99.90;;;;;;5074757;28;20524;-66
2022/02/13 08:46:15;;;;;;;16.92;7.43;;;9.20;99.90;;;;;;5074590;28;20053;-66
2022/02/13 08:48:43;;;;;;;16.58;6.68;;;10.00;99.90;;;;;;5074878;28;20143;-66
2022/02/13 08:51:10;;;;;;;13.23;6.40;;;11.50;99.90;;;;;;5074644;28;20056;-66
2022/02/13 08:53:37;;;;;;;10.70;5.97;;;11.50;99.90;;;;;;5074527;28;20059;-66
2022/02/13 08:56:05;;;;;;;11.45;6.25;;;11.70;99.90;;;;;;5074416;28;20060;-67
2022/02/13 08:58:33;;;;;;;11.65;6.32;;;11.90;99.10;;;;;;5074753;28;20074;-67
2022/02/13 09:01:00;;;;;;;12.85;6.93;;;12.70;99.90;;;;;;5074704;28;20084;-67
2022/02/13 09:03:28;;;;;;;10.32;6.13;;;11.80;99.90;;;;;;5074458;28;20408;-67
2022/02/13 09:05:55;;;;;;;12.73;6.40;;;11.80;99.10;;;;;;5074081;28;20055;-69
2022/02/13 09:08:22;;;;;;;10.45;5.53;;;12.90;98.70;;;;;;5074382;28;20102;-67
2022/02/13 09:10:49;;;;;;;14.07;7.10;;;12.70;97.70;;;;;;5073311;28;20137;-67
2022/02/13 09:13:16;;;;;;;12.93;5.88;;;13.60;98.40;;;;;;5074320;28;20476;-67
2022/02/13 09:15:44;;;;;;;13.20;5.47;;;13.70;97.40;;;;;;5074208;28;20135;-67
2022/02/13 09:18:11;;;;;;;12.48;6.72;;;14.60;95.90;;;;;;5074234;28;20135;-69
2022/02/13 09:20:44;;;;;;;11.23;5.97;;;12.70;97.50;;;;;;5074350;28;20060;-68
2022/02/13 09:23:12;;;;;;;10.70;5.93;;;11.90;98.40;;;;;;5074412;28;20458;-68
2022/02/13 09:25:40;;;;;;;12.93;6.35;;;11.60;98.40;;;;;;5074205;28;20053;-68
2022/02/13 09:28:07;;;;;;;13.75;6.13;;;12.30;99.50;;;;;;5073953;28;20045;-68
2022/02/13 09:30:33;;;;;;;10.65;6.05;;;10.90;99.20;;;;;;5073937;28;20448;-67
2022/02/13 09:33:02;;;;;;;11.23;6.30;;;11.50;99.90;;;;;;5073798;28;20135;-67
2022/02/13 09:35:29;;;;;;;11.48;5.57;;;12.10;98.70;;;;;;5073472;28;20481;-67
2022/02/13 09:37:56;;;;;;;10.32;5.40;;;12.00;99.00;;;;;;5073660;28;20137;-67
2022/02/13 09:40:23;;;;;;;10.50;5.47;;;12.00;98.00;;;;;;5073646;28;20492;-67
2022/02/13 09:42:50;;;;;;;12.95;5.60;;;13.30;98.10;;;;;;5073792;28;20147;-67
2022/02/13 09:45:17;;;;;;;9.98;5.57;;;12.20;98.20;;;;;;5073399;28;20127;-67
2022/02/13 09:47:44;;;;;;;11.95;6.05;;;12.90;98.50;;;;;;5073517;28;20135;-67
2022/02/13 09:50:14;;;;;;;13.30;5.88;;;13.20;97.40;;;;;;5073617;28;20139;-68
2022/02/13 09:52:41;;;;;;;12.18;6.35;;;14.50;96.40;;;;;;5073555;28;20140;-67
2022/02/13 09:55:09;;;;;;;11.27;6.10;;;12.70;97.50;;;;;;5073173;28;20052;-67
2022/02/13 10:00:20;;;;;;;9.80;6.00;;;16.10;95.90;;;;;;5072957;28;20090;-68
2022/02/13 10:02:47;;;;;;;10.55;5.57;;;14.60;95.50;;;;;;5073278;28;20408;-68
2022/02/13 10:05:22;;;;;;;14.38;6.70;;;13.70;96.00;;;;;;5072825;28;20078;-69
2022/02/13 10:07:52;;;;;;;9.93;5.78;;;13.90;96.50;;;;;;5073215;28;20064;-68
2022/02/13 10:10:19;;;;;;;12.50;5.85;;;14.40;95.10;;;;;;5072748;28;20420;-68
2022/02/13 10:12:48;;;;;;;10.73;5.93;;;14.90;94.90;;;;;;5072540;28;20357;-68
2022/02/13 10:15:30;;;;;;;11.38;5.68;;;15.50;95.70;;;;;;5072816;28;20493;-68
2022/02/13 10:18:06;;;;;;;19.02;6.40;;;12.60;96.90;;;;;;5075237;28;20127;-69
2022/02/13 10:20:36;;;;;;;12.35;5.90;;;14.90;95.10;;;;;;5075768;28;20558;-69
2022/02/13 10:23:08;;;;;;;9.90;5.70;;;15.30;94.90;;;;;;5072846;28;20052;-69
2022/02/13 10:25:35;;;;;;;19.98;6.53;;;15.70;94.70;;;;;;5072065;28;20102;-69
2022/02/13 10:28:10;;;;;;;9.48;5.38;;;15.30;94.30;;;;;;5072368;28;20052;-69
2022/02/13 10:30:39;;;;;;;12.50;5.80;;;15.50;94.90;;;;;;5072412;28;20053;-69
2022/02/13 10:33:16;;;;;;;11.02;5.88;;;16.10;94.60;;;;;;5072266;28;20040;-69
2022/02/13 10:36:05;;;;;;;13.13;6.10;;;16.00;94.20;;;;;;5071980;28;20135;-69
2022/02/13 10:38:35;;;;;;;11.38;5.95;;;15.90;94.50;;;;;;5072137;28;20044;-68
2022/02/13 10:41:27;;;;;;;10.35;6.05;;;15.20;94.90;;;;;;5071860;28;20079;-68
2022/02/13 10:43:57;;;;;;;14.75;5.53;;;14.90;95.10;;;;;;5057527;28;20052;-68
2022/02/13 10:46:25;;;;;;;13.52;6.10;;;14.40;96.40;;;;;;5071930;28;20045;-68
2022/02/13 10:48:53;;;;;;;14.50;5.93;;;15.40;95.50;;;;;;5072058;28;20049;-68
2022/02/13 10:51:23;;;;;;;10.88;5.70;;;14.70;95.50;;;;;;5072459;28;20131;-68
2022/02/13 10:53:50;;;;;;;11.30;6.30;;;14.60;96.30;;;;;;5072050;28;20599;-68
2022/02/13 10:56:17;;;;;;;12.60;6.40;;;16.90;95.00;;;;;;5072013;28;20071;-68
2022/02/13 10:58:44;;;;;;;11.25;6.20;;;17.30;95.40;;;;;;5072009;28;20049;-68
2022/02/13 11:01:15;;;;;;;12.00;6.25;;;16.40;94.90;;;;;;5071965;28;20140;-68
2022/02/13 11:03:45;;;;;;;12.70;6.53;;;16.70;95.20;;;;;;5071960;28;20381;-68
2022/02/13 11:06:12;;;;;;;13.05;6.07;;;18.00;94.50;;;;;;5071447;28;20059;-68
2022/02/13 11:08:45;;;;;;;11.10;5.75;;;16.50;94.50;;;;;;5071574;28;20080;-68
2022/02/13 11:11:12;;;;;;;12.05;6.45;;;15.80;94.70;;;;;;5071939;28;20061;-68
2022/02/13 11:13:40;;;;;;;15.77;7.13;;;15.30;95.20;;;;;;5071540;28;20045;-68
2022/02/13 11:16:29;;;;;;;12.63;6.10;;;17.40;93.10;;;;;;5071992;28;20053;-68
2022/02/13 11:18:59;;;;;;;12.95;6.63;;;18.60;94.00;;;;;;5072039;28;20048;-68
2022/02/13 11:21:29;;;;;;;10.48;6.05;;;18.80;92.80;;;;;;5071942;28;20048;-68
2022/02/13 11:23:59;;;;;;;13.10;6.43;;;18.80;93.30;;;;;;5071788;28;20131;-68
2022/02/13 11:26:36;;;;;;;12.80;6.18;;;18.50;92.60;;;;;;5071864;28;20083;-68
2022/02/13 11:29:04;;;;;;;19.45;6.65;;;15.80;94.50;;;;;;5071567;28;20132;-68
2022/02/13 11:31:42;;;;;;;11.35;5.97;;;17.80;92.80;;;;;;5067971;28;20044;-68
2022/02/13 11:34:10;;;;;;;10.88;6.13;;;18.20;94.20;;;;;;5049962;28;20520;-68
2022/02/13 11:36:47;;;;;;;15.10;6.57;;;16.60;94.40;;;;;;5051027;28;20055;-68
2022/02/13 11:39:34;;;;;;;15.15;6.07;;;15.80;95.80;;;;;;5051488;28;20481;-68
2022/02/13 11:42:04;;;;;;;12.25;7.13;;;13.90;97.00;;;;;;5053272;28;20128;-68
2022/02/13 11:44:49;;;;;;;15.85;6.65;;;13.90;98.10;;;;;;5051358;28;20076;-68
2022/02/13 11:47:18;;;;;;;12.05;6.15;;;13.60;97.60;;;;;;5051723;28;20053;-68
2022/02/13 11:50:24;;;;;;;12.50;6.60;;;12.60;99.60;;;;;;5051425;28;20051;-68
2022/02/13 11:53:14;;;;;;;11.77;6.13;;;14.10;98.10;;;;;;5051292;28;20485;-68
2022/02/13 11:55:42;;;;;;;11.38;5.75;;;15.40;96.90;;;;;;5051285;28;20139;-68
2022/02/13 11:58:13;;;;;;;10.57;6.00;;;17.50;95.30;;;;;;5051216;28;20045;-68
2022/02/13 12:00:45;;;;;;;12.55;5.70;;;18.50;95.30;;;;;;5051286;28;20139;-68
2022/02/13 12:03:17;;;;;;;13.88;6.15;;;18.40;94.40;;;;;;5051060;28;20144;-68
2022/02/13 12:05:50;;;;;;;11.07;5.72;;;19.80;93.60;;;;;;5051336;28;20417;-68
2022/02/13 12:08:22;;;;;;;12.27;6.18;;;18.50;93.90;;;;;;5051575;28;20081;-69
2022/02/13 12:11:01;;;;;;;13.48;6.88;;;16.60;95.20;;;;;;5051332;28;20068;-68
2022/02/13 12:13:28;;;;;;;11.43;6.15;;;15.80;96.10;;;;;;5051260;28;20135;-68
2022/02/13 12:15:57;;;;;;;11.77;5.85;;;16.30;95.80;;;;;;5050955;28;20134;-68
2022/02/13 12:18:24;;;;;;;10.70;6.47;;;15.70;96.10;;;;;;5051272;28;20052;-68
2022/02/13 12:20:57;;;;;;;10.70;6.03;;;15.80;96.60;;;;;;5050993;28;20136;-68
2022/02/13 12:23:25;;;;;;;14.23;5.93;;;16.50;96.10;;;;;;5051461;28;20084;-68
2022/02/13 12:25:54;;;;;;;12.10;5.60;;;15.70;96.20;;;;;;5051245;28;20114;-68
2022/02/13 12:28:21;;;;;;;12.18;5.60;;;15.80;96.40;;;;;;5051044;28;20064;-68
2022/02/13 12:30:50;;;;;;;12.57;6.07;;;16.20;96.00;;;;;;5051008;28;20132;-68
2022/02/13 12:33:18;;;;;;;12.10;6.20;;;17.40;95.10;;;;;;5051181;28;20400;-68
2022/02/13 12:35:46;;;;;;;12.35;5.28;;;17.70;94.90;;;;;;5050708;28;20111;-68
2022/02/13 12:38:14;;;;;;;12.43;5.97;;;17.50;94.00;;;;;;5050937;28;20148;-68
2022/02/13 12:40:44;;;;;;;11.88;6.15;;;17.40;94.90;;;;;;5050811;28;20136;-68
2022/02/13 12:43:16;;;;;;;11.52;5.45;;;17.20;94.10;;;;;;5051265;28;20062;-68